createdAt,value
2023-02-04T00:01:24.248Z,102092.09
2023-02-04T00:03:55.606Z,102098.91
2023-02-04T00:06:27.116Z,102094.19
2023-02-04T00:08:58.452Z,102056.56
2023-02-04T00:11:29.879Z,102102.63
2023-02-04T00:14:01.201Z,102106.84
2023-02-04T00:16:32.572Z,102079.78
2023-02-04T00:19:03.894Z,102099.25
2023-02-04T00:21:35.163Z,102119.22
2023-02-04T00:24:06.430Z,102133.13
2023-02-04T00:26:37.835Z,102133.06
2023-02-04T00:29:09.085Z,102141.56
2023-02-04T00:31:40.438Z,102145.56
2023-02-04T00:34:11.760Z,102154.16
2023-02-04T00:36:43.052Z,102149.28
2023-02-04T00:39:14.334Z,102145.47
2023-02-04T00:41:45.610Z,102170.13
2023-02-04T00:44:16.932Z,102151.09
2023-02-04T00:46:48.721Z,102184.78
2023-02-04T00:49:20.015Z,102173.94
2023-02-04T00:51:51.435Z,102204.44
2023-02-04T00:54:22.704Z,102197.53
2023-02-04T00:56:54.011Z,102201.31
2023-02-04T00:59:25.511Z,102233.59
2023-02-04T01:01:56.817Z,102231.22
2023-02-04T01:04:29.462Z,102239.19
2023-02-04T01:07:00.787Z,102234.25
2023-02-04T01:09:32.114Z,102249.09
2023-02-04T01:12:03.533Z,102258.34
2023-02-04T01:14:34.918Z,102259.66
2023-02-04T01:17:06.701Z,102265.41
2023-02-04T01:19:37.976Z,102265.25
2023-02-04T01:22:09.293Z,102278.94
2023-02-04T01:24:40.564Z,102283.16
2023-02-04T01:27:11.844Z,102249.06
2023-02-04T01:29:43.155Z,102281.94
2023-02-04T01:32:14.419Z,102254.75
2023-02-04T01:34:45.733Z,102293.75
2023-02-04T01:37:17.769Z,102301.38
2023-02-04T01:39:49.030Z,102294.34
2023-02-04T01:42:20.374Z,102303.16
2023-02-04T01:44:52.168Z,102308.78
2023-02-04T01:47:25.527Z,102304.56
2023-02-04T01:49:56.977Z,102294.53
2023-02-04T01:52:32.405Z,102330.88
2023-02-04T01:55:06.161Z,102321.09
2023-02-04T01:57:37.549Z,102339.13
2023-02-04T02:00:24.601Z,102318.03
2023-02-04T02:02:56.719Z,102342.38
2023-02-04T02:05:43.978Z,102327.34
2023-02-04T02:08:16.275Z,102347.94
2023-02-04T02:10:49.165Z,102350.84
2023-02-04T02:13:20.704Z,102355.34
2023-02-04T02:15:52.049Z,102366.00
2023-02-04T02:18:25.136Z,102372.59
2023-02-04T02:21:00.407Z,102351.53
2023-02-04T02:23:51.428Z,102381.38
2023-02-04T02:26:24.102Z,102389.53
2023-02-04T02:28:55.631Z,102378.22
2023-02-04T02:31:27.479Z,102391.38
2023-02-04T02:33:58.817Z,102372.22
2023-02-04T02:36:30.182Z,102399.03
2023-02-04T02:39:01.519Z,102398.84
2023-02-04T02:41:33.749Z,102390.91
2023-02-04T02:44:05.362Z,102401.03
2023-02-04T02:46:36.906Z,102397.91
2023-02-04T02:49:15.973Z,102426.94
2023-02-04T02:51:48.173Z,102426.25
2023-02-04T02:54:33.104Z,102416.78
2023-02-04T02:57:13.747Z,102431.63
2023-02-04T02:59:45.785Z,102447.34
2023-02-04T03:02:22.439Z,102442.53
2023-02-04T03:04:58.453Z,102462.94
2023-02-04T03:07:29.740Z,102478.78
2023-02-04T03:10:01.117Z,102461.00
2023-02-04T03:12:32.708Z,102480.59
2023-02-04T03:15:05.383Z,102471.75
2023-02-04T03:17:37.447Z,102459.16
2023-02-04T03:20:09.808Z,102485.63
2023-02-04T03:22:41.198Z,102473.38
2023-02-04T03:25:12.519Z,102501.44
2023-02-04T03:27:44.190Z,102502.28
2023-02-04T03:30:15.684Z,102470.44
2023-02-04T03:32:47.029Z,102512.63
2023-02-04T03:35:18.660Z,102515.38
2023-02-04T03:37:50.067Z,102534.59
2023-02-04T03:40:21.377Z,102512.41
2023-02-04T03:42:52.689Z,102541.00
2023-02-04T03:45:24.016Z,102518.53
2023-02-04T03:47:55.705Z,102498.00
2023-02-04T03:50:27.000Z,102553.47
2023-02-04T03:52:58.262Z,102544.25
2023-02-04T03:55:29.572Z,102570.38
2023-02-04T03:58:00.860Z,102546.25
2023-02-04T04:00:32.804Z,102583.75
2023-02-04T04:03:04.282Z,102582.03
2023-02-04T04:05:35.594Z,102578.38
2023-02-04T04:08:07.288Z,102585.41
2023-02-04T04:10:39.418Z,102590.31
2023-02-04T04:13:11.686Z,102574.25
2023-02-04T04:15:43.014Z,102596.66
2023-02-04T04:18:14.328Z,102580.25
2023-02-04T04:20:45.623Z,102589.91
2023-02-04T04:23:16.886Z,102621.00
2023-02-04T04:25:48.141Z,102612.47
2023-02-04T04:28:19.499Z,102586.66
2023-02-04T04:30:50.979Z,102638.41
2023-02-04T04:33:22.340Z,102642.81
2023-02-04T04:35:53.594Z,102646.06
2023-02-04T04:38:24.886Z,102626.13
2023-02-04T04:40:56.207Z,102644.53
2023-02-04T04:43:27.545Z,102631.91
2023-02-04T04:45:58.816Z,102630.09
2023-02-04T04:48:30.073Z,102628.19
2023-02-04T04:51:01.358Z,102636.03
2023-02-04T04:53:32.614Z,102621.53
2023-02-04T04:56:03.964Z,102644.50
2023-02-04T04:58:35.310Z,102645.41
2023-02-04T05:01:06.733Z,102654.66
2023-02-04T05:03:38.115Z,102660.31
2023-02-04T05:06:10.933Z,102653.16
2023-02-04T05:08:42.204Z,102619.69
2023-02-04T05:11:13.459Z,102679.63
2023-02-04T05:13:44.705Z,102674.25
2023-02-04T05:16:17.241Z,102686.97
2023-02-04T05:18:48.584Z,102700.34
2023-02-04T05:21:19.856Z,102669.00
2023-02-04T05:23:51.122Z,102717.94
2023-02-04T05:26:30.135Z,102715.25
2023-02-04T05:29:02.431Z,102715.13
2023-02-04T05:31:34.416Z,102702.25
2023-02-04T05:34:05.728Z,102717.44
2023-02-04T05:36:36.983Z,102732.34
2023-02-04T05:39:08.297Z,102736.84
2023-02-04T05:41:39.750Z,102742.97
2023-02-04T05:44:11.095Z,102733.94
2023-02-04T05:46:42.405Z,102750.00
2023-02-04T05:49:13.750Z,102742.84
2023-02-04T05:51:45.025Z,102751.81
2023-02-04T05:54:19.361Z,102737.91
2023-02-04T05:56:51.656Z,102753.94
2023-02-04T05:59:23.006Z,102753.28
2023-02-04T06:01:54.631Z,102750.88
2023-02-04T06:04:26.032Z,102759.19
2023-02-04T06:06:57.371Z,102754.03
2023-02-04T06:09:28.643Z,102744.38
2023-02-04T06:11:59.967Z,102762.41
2023-02-04T06:14:31.218Z,102762.09
2023-02-04T06:17:02.482Z,102777.13
2023-02-04T06:19:33.776Z,102758.69
2023-02-04T06:22:05.104Z,102790.19
2023-02-04T06:24:36.811Z,102735.53
2023-02-04T06:27:08.272Z,102773.53
2023-02-04T06:29:39.607Z,102797.00
2023-02-04T06:32:10.873Z,102780.22
2023-02-04T06:34:42.160Z,102810.06
2023-02-04T06:37:13.766Z,102818.47
2023-02-04T06:39:45.076Z,102812.84
2023-02-04T06:42:16.387Z,102823.97
2023-02-04T06:44:47.652Z,102829.75
2023-02-04T06:47:19.385Z,102834.88
2023-02-04T06:49:50.655Z,102831.38
2023-02-04T06:52:22.159Z,102832.75
2023-02-04T06:54:53.423Z,102846.25
2023-02-04T06:57:24.813Z,102850.81
2023-02-04T06:59:56.114Z,102854.50
2023-02-04T07:02:27.458Z,102857.22
2023-02-04T07:05:00.689Z,102872.47
2023-02-04T07:07:31.952Z,102876.06
2023-02-04T07:10:03.955Z,102870.69
2023-02-04T07:12:35.213Z,102879.50
2023-02-04T07:15:06.848Z,102871.25
2023-02-04T07:17:38.127Z,102891.59
2023-02-04T07:20:10.967Z,102895.03
2023-02-04T07:22:42.458Z,102895.84
2023-02-04T07:25:15.935Z,102900.16
2023-02-04T07:27:47.271Z,102898.28
2023-02-04T07:30:18.627Z,102908.91
2023-02-04T07:32:49.915Z,102903.38
2023-02-04T07:35:21.234Z,102913.41
2023-02-04T07:37:52.519Z,102915.13
2023-02-04T07:40:23.841Z,102914.47
2023-02-04T07:42:55.174Z,102910.53
2023-02-04T07:45:26.491Z,102924.13
2023-02-04T07:47:57.775Z,102921.50
2023-02-04T07:50:29.200Z,102919.63
2023-02-04T07:53:00.531Z,102935.66
2023-02-04T07:55:32.178Z,102941.97
2023-02-04T07:58:03.718Z,102901.16
2023-02-04T08:00:34.971Z,102936.69
2023-02-04T08:03:06.265Z,102946.94
2023-02-04T08:05:37.541Z,102956.09
2023-02-04T08:08:08.885Z,102959.06
2023-02-04T08:10:40.221Z,102956.84
2023-02-04T08:13:11.561Z,102947.63
2023-02-04T08:15:42.928Z,102947.28
2023-02-04T08:18:14.243Z,102956.78
2023-02-04T08:20:45.525Z,102951.34
2023-02-04T08:23:16.798Z,102936.78
2023-02-04T08:25:48.059Z,102945.94
2023-02-04T08:28:19.612Z,102959.34
2023-02-04T08:30:51.139Z,102961.81
2023-02-04T08:33:22.553Z,102967.28
2023-02-04T08:35:53.925Z,102972.59
2023-02-04T08:38:25.310Z,102965.66
2023-02-04T08:40:56.631Z,102955.75
2023-02-04T08:43:28.075Z,102971.13
2023-02-04T08:45:59.351Z,102966.69
2023-02-04T08:48:30.633Z,102979.22
2023-02-04T08:51:01.978Z,102980.28
2023-02-04T08:53:33.289Z,102978.97
2023-02-04T08:56:04.909Z,102986.13
2023-02-04T08:58:36.369Z,102981.19
2023-02-04T09:01:07.758Z,102982.38
2023-02-04T09:03:39.504Z,102985.81
2023-02-04T09:06:11.378Z,102970.88
2023-02-04T09:08:42.694Z,102973.06
2023-02-04T09:11:14.794Z,102971.19
2023-02-04T09:13:46.190Z,102997.19
2023-02-04T09:16:18.473Z,103011.34
2023-02-04T09:18:49.801Z,102992.84
2023-02-04T09:21:21.258Z,103006.69
2023-02-04T09:23:52.570Z,102990.16
2023-02-04T09:26:24.100Z,102996.81
2023-02-04T09:28:55.422Z,103014.41
2023-02-04T09:31:26.799Z,103026.25
2023-02-04T09:33:58.258Z,103025.56
2023-02-04T09:36:30.551Z,103034.63
2023-02-04T09:39:01.815Z,103024.06
2023-02-04T09:41:34.295Z,103027.78
2023-02-04T09:44:12.624Z,103035.94
2023-02-04T09:46:49.171Z,103040.84
2023-02-04T09:49:20.529Z,103040.91
2023-02-04T09:51:52.619Z,103023.16
2023-02-04T09:54:24.122Z,103041.53
2023-02-04T09:56:55.456Z,103049.75
2023-02-04T09:59:28.830Z,103050.91
2023-02-04T10:02:02.759Z,103041.69
2023-02-04T10:04:34.097Z,103036.44
2023-02-04T10:07:12.088Z,103037.16
2023-02-04T10:09:43.634Z,103040.81
2023-02-04T10:12:15.100Z,103019.50
2023-02-04T10:14:46.644Z,103050.16
2023-02-04T10:17:21.836Z,103057.78
2023-02-04T10:19:53.115Z,103067.06
2023-02-04T10:22:24.462Z,103069.91
2023-02-04T10:24:55.708Z,103063.16
2023-02-04T10:27:27.020Z,103071.34
2023-02-04T10:29:59.518Z,103062.78
2023-02-04T10:32:33.336Z,103069.59
2023-02-04T10:35:04.948Z,103056.81
2023-02-04T10:37:36.225Z,103077.44
2023-02-04T10:40:32.847Z,103073.44
2023-02-04T10:43:10.205Z,103078.16
2023-02-04T10:45:47.079Z,103075.66
2023-02-04T10:48:19.375Z,103073.91
2023-02-04T10:50:50.726Z,103073.97
2023-02-04T10:53:41.926Z,103090.16
2023-02-04T10:56:17.165Z,103092.19
2023-02-04T10:58:49.363Z,103069.78
2023-02-04T11:01:20.665Z,103094.00
2023-02-04T11:03:53.785Z,103079.19
2023-02-04T11:06:25.137Z,103096.22
2023-02-04T11:08:59.110Z,103090.91
2023-02-04T11:11:30.485Z,103086.50
2023-02-04T11:14:03.201Z,103089.91
2023-02-04T11:16:46.091Z,103040.66
2023-02-04T11:19:31.743Z,103080.41
2023-02-04T11:22:22.573Z,103088.38
2023-02-04T11:24:55.814Z,103079.34
2023-02-04T11:27:39.147Z,103085.91
2023-02-04T11:30:21.791Z,103076.03
2023-02-04T11:33:23.770Z,103100.63
2023-02-04T11:36:04.410Z,103088.50
2023-02-04T11:38:35.892Z,103095.91
2023-02-04T11:41:17.904Z,103074.69
2023-02-04T11:43:53.861Z,103090.88
2023-02-04T11:46:27.979Z,103087.06
2023-02-04T11:48:59.356Z,103103.09
2023-02-04T11:51:33.339Z,103107.25
2023-02-04T11:54:04.722Z,103101.47
2023-02-04T11:56:36.082Z,103079.06
2023-02-04T11:59:10.973Z,103084.56
2023-02-04T12:01:42.302Z,103108.47
2023-02-04T12:04:24.971Z,103096.56
2023-02-04T12:07:02.181Z,103070.09
2023-02-04T12:09:33.615Z,103104.34
2023-02-04T12:12:05.044Z,103100.50
2023-02-04T12:14:37.947Z,103091.50
2023-02-04T12:17:17.315Z,103104.50
2023-02-04T12:19:48.575Z,103108.28
2023-02-04T12:22:19.835Z,103101.50
2023-02-04T12:24:52.312Z,103111.38
2023-02-04T12:27:23.666Z,103114.59
2023-02-04T12:29:55.015Z,103113.06
2023-02-04T12:32:26.255Z,103112.75
2023-02-04T12:34:57.541Z,103115.31
2023-02-04T12:37:28.889Z,103111.81
2023-02-04T12:40:00.139Z,103100.28
2023-02-04T12:42:31.387Z,103122.97
2023-02-04T12:45:02.799Z,103119.09
2023-02-04T12:47:34.078Z,103123.75
2023-02-04T12:50:07.111Z,103118.47
2023-02-04T12:52:39.359Z,103122.78
2023-02-04T12:55:10.622Z,103117.38
2023-02-04T12:57:41.872Z,103115.50
2023-02-04T13:00:14.589Z,103123.06
2023-02-04T13:02:46.128Z,103133.00
2023-02-04T13:05:18.405Z,103128.28
2023-02-04T13:07:49.739Z,103117.59
2023-02-04T13:10:21.816Z,103124.69
2023-02-04T13:12:53.321Z,103131.50
2023-02-04T13:15:24.574Z,103135.69
2023-02-04T13:17:55.844Z,103125.69
2023-02-04T13:20:27.160Z,103122.22
2023-02-04T13:22:58.445Z,103144.50
2023-02-04T13:25:29.788Z,103147.72
2023-02-04T13:28:01.142Z,103137.72
2023-02-04T13:30:32.606Z,103144.31
2023-02-04T13:33:04.003Z,103130.59
2023-02-04T13:35:35.695Z,103128.53
2023-02-04T13:38:07.078Z,103141.72
2023-02-04T13:40:39.221Z,103142.69
2023-02-04T13:43:10.664Z,103143.88
2023-02-04T13:45:47.447Z,103115.63
2023-02-04T13:48:18.852Z,103104.00
2023-02-04T13:50:50.745Z,103109.31
2023-02-04T13:53:22.058Z,103137.91
2023-02-04T13:55:53.351Z,103143.66
2023-02-04T13:58:25.115Z,103127.81
2023-02-04T14:00:57.387Z,103115.97
2023-02-04T14:03:29.857Z,103141.84
2023-02-04T14:06:01.421Z,103143.53
2023-02-04T14:08:33.063Z,103142.50
2023-02-04T14:11:05.080Z,103137.78
2023-02-04T14:13:36.341Z,103141.81
2023-02-04T14:16:09.221Z,103125.22
2023-02-04T14:18:40.532Z,103140.06
2023-02-04T14:21:11.899Z,103157.63
2023-02-04T14:23:43.189Z,103150.06
2023-02-04T14:26:14.736Z,103164.84
2023-02-04T14:28:46.015Z,103165.63
2023-02-04T14:31:17.324Z,103146.53
2023-02-04T14:33:50.425Z,103164.41
2023-02-04T14:36:22.126Z,103146.34
2023-02-04T14:38:53.602Z,103138.88
2023-02-04T14:41:26.272Z,103136.06
2023-02-04T14:43:57.548Z,103143.66
2023-02-04T14:46:28.861Z,103162.28
2023-02-04T14:49:00.214Z,103151.09
2023-02-04T14:51:31.628Z,103151.66
2023-02-04T14:54:02.924Z,103168.16
2023-02-04T14:56:34.218Z,103169.56
2023-02-04T14:59:05.554Z,103156.53
2023-02-04T15:01:36.891Z,103167.97
2023-02-04T15:04:08.213Z,103111.56
2023-02-04T15:06:39.499Z,103168.75
2023-02-04T15:09:10.843Z,103158.56
2023-02-04T15:11:42.151Z,103147.63
2023-02-04T15:14:13.476Z,103167.28
2023-02-04T15:16:47.929Z,103169.09
2023-02-04T15:19:21.560Z,103156.06
2023-02-04T15:21:53.932Z,103173.81
2023-02-04T15:24:27.608Z,103166.75
2023-02-04T15:26:58.908Z,103158.84
2023-02-04T15:29:30.583Z,103154.34
2023-02-04T15:32:02.066Z,103157.03
2023-02-04T15:34:34.722Z,103164.25
2023-02-04T15:37:06.284Z,103147.78
2023-02-04T15:39:38.491Z,103157.47
2023-02-04T15:42:10.030Z,103168.94
2023-02-04T15:44:41.312Z,103156.97
2023-02-04T15:47:12.606Z,103168.09
2023-02-04T15:49:43.933Z,103156.13
2023-02-04T15:52:24.143Z,103171.28
2023-02-04T15:54:56.594Z,103165.88
2023-02-04T15:57:27.988Z,103167.38
2023-02-04T15:59:59.336Z,103161.69
2023-02-04T16:02:30.818Z,103174.16
2023-02-04T16:05:02.213Z,103136.25
2023-02-04T16:07:33.932Z,103143.28
2023-02-04T16:10:05.550Z,103149.44
2023-02-04T16:12:36.875Z,103178.97
2023-02-04T16:15:08.856Z,103161.88
2023-02-04T16:17:40.143Z,103181.31
2023-02-04T16:20:11.598Z,103156.97
2023-02-04T16:22:43.009Z,103155.00
2023-02-04T16:25:14.355Z,103174.75
2023-02-04T16:27:45.761Z,103171.81
2023-02-04T16:30:17.259Z,103171.59
2023-02-04T16:32:48.575Z,103175.88
2023-02-04T16:35:19.930Z,103175.81
2023-02-04T16:37:51.197Z,103156.53
2023-02-04T16:40:22.516Z,103167.19
2023-02-04T16:42:53.856Z,103185.03
2023-02-04T16:45:25.109Z,103194.41
2023-02-04T16:47:56.358Z,103191.63
2023-02-04T16:50:27.602Z,103175.19
2023-02-04T16:52:58.938Z,103183.22
2023-02-04T16:55:30.330Z,103191.25
2023-02-04T16:58:01.651Z,103162.50
2023-02-04T17:00:32.947Z,103174.06
2023-02-04T17:03:05.701Z,103191.94
2023-02-04T17:05:37.652Z,103193.56
2023-02-04T17:08:09.423Z,103179.00
2023-02-04T17:11:00.097Z,103184.25
2023-02-04T17:13:31.390Z,103191.31
2023-02-04T17:16:02.852Z,103205.41
2023-02-04T17:18:34.233Z,103179.34
2023-02-04T17:21:05.578Z,103149.56
2023-02-04T17:23:36.932Z,103208.69
2023-02-04T17:26:08.302Z,103202.97
2023-02-04T17:28:40.080Z,103204.78
2023-02-04T17:31:11.624Z,103210.13
2023-02-04T17:33:43.124Z,103202.59
2023-02-04T17:36:15.229Z,103210.69
2023-02-04T17:38:46.628Z,103215.22
2023-02-04T17:41:17.961Z,103220.38
2023-02-04T17:43:50.232Z,103210.69
2023-02-04T17:46:21.646Z,103227.28
2023-02-04T17:48:52.921Z,103217.50
2023-02-04T17:51:24.225Z,103194.25
2023-02-04T17:53:55.592Z,103190.31
2023-02-04T17:56:27.005Z,103175.81
2023-02-04T17:58:58.405Z,103195.41
2023-02-04T18:01:29.758Z,103201.38
2023-02-04T18:04:02.051Z,103189.22
2023-02-04T18:06:33.796Z,103183.66
2023-02-04T18:09:14.336Z,103168.97
2023-02-04T18:11:45.828Z,103171.84
2023-02-04T18:14:24.209Z,103193.56
2023-02-04T18:17:00.444Z,103204.44
2023-02-04T18:19:36.808Z,103210.81
2023-02-04T18:22:13.261Z,103209.22
2023-02-04T18:24:48.240Z,103207.06
2023-02-04T18:27:24.353Z,103213.78
2023-02-04T18:29:56.498Z,103214.59
2023-02-04T18:32:38.896Z,103196.56
2023-02-04T18:35:22.374Z,103224.50
2023-02-04T18:37:53.901Z,103215.75
2023-02-04T18:40:28.041Z,103220.59
2023-02-04T18:43:27.951Z,103221.84
2023-02-04T18:46:05.829Z,103221.38
2023-02-04T18:48:53.989Z,103197.44
2023-02-04T18:51:40.194Z,103229.75
2023-02-04T18:54:27.587Z,103221.16
2023-02-04T18:57:26.937Z,103209.50
2023-02-04T19:00:10.148Z,103232.88
2023-02-04T19:02:51.803Z,103237.31
2023-02-04T19:05:29.943Z,103238.28
2023-02-04T19:08:04.546Z,103234.03
2023-02-04T19:10:38.111Z,103232.41
2023-02-04T19:13:39.268Z,103238.63
2023-02-04T19:16:23.956Z,103234.38
2023-02-04T19:18:56.523Z,103206.59
2023-02-04T19:21:33.931Z,103220.94
2023-02-04T19:24:17.684Z,103214.34
2023-02-04T19:27:00.296Z,103227.97
2023-02-04T19:29:42.043Z,103206.41
2023-02-04T19:32:23.962Z,103227.00
2023-02-04T19:34:59.171Z,103206.59
2023-02-04T19:37:41.130Z,103214.53
2023-02-04T19:40:38.863Z,103212.00
2023-02-04T19:43:19.024Z,103222.47
2023-02-04T19:45:51.186Z,103225.09
2023-02-04T19:48:38.318Z,103226.66
2023-02-04T19:51:20.976Z,103232.06
2023-02-04T19:53:59.028Z,103231.16
2023-02-04T19:56:36.578Z,103225.50
2023-02-04T19:59:28.942Z,103227.56
2023-02-04T20:02:06.034Z,103236.22
2023-02-04T20:04:48.668Z,103213.84
2023-02-04T20:07:23.092Z,103230.00
2023-02-04T20:10:06.117Z,103212.94
2023-02-04T20:12:37.983Z,103214.84
2023-02-04T20:15:20.903Z,103225.41
2023-02-04T20:17:52.873Z,103224.34
2023-02-04T20:20:29.868Z,103213.44
2023-02-04T20:23:14.491Z,103197.28
2023-02-04T20:25:49.261Z,103209.41
2023-02-04T20:28:42.739Z,103212.16
2023-02-04T20:31:29.007Z,103206.03
2023-02-04T20:34:00.694Z,103170.91
2023-02-04T20:36:38.375Z,103185.00
2023-02-04T20:39:09.827Z,103196.19
2023-02-04T20:41:41.424Z,103186.44
2023-02-04T20:44:17.177Z,103206.47
2023-02-04T20:46:48.482Z,103186.81
2023-02-04T20:49:24.574Z,103181.28
2023-02-04T20:52:00.019Z,103184.44
2023-02-04T20:54:32.110Z,103191.03
2023-02-04T20:57:20.379Z,103183.34
2023-02-04T20:59:53.622Z,103189.31
2023-02-04T21:02:24.896Z,103177.13
2023-02-04T21:04:56.659Z,103192.19
2023-02-04T21:07:27.931Z,103188.19
2023-02-04T21:09:59.630Z,103171.03
2023-02-04T21:12:31.933Z,103185.63
2023-02-04T21:15:03.568Z,103200.31
2023-02-04T21:17:34.882Z,103179.78
2023-02-04T21:20:06.853Z,103201.75
2023-02-04T21:22:38.219Z,103224.47
2023-02-04T21:25:11.570Z,103216.25
2023-02-04T21:27:42.990Z,103221.28
2023-02-04T21:30:15.966Z,103206.63
2023-02-04T21:32:47.245Z,103195.59
2023-02-04T21:35:24.157Z,103215.16
2023-02-04T21:38:00.187Z,103210.44
2023-02-04T21:40:32.890Z,103197.50
2023-02-04T21:43:07.472Z,103172.16
2023-02-04T21:45:39.673Z,103178.97
2023-02-04T21:48:11.159Z,103169.75
2023-02-04T21:50:42.577Z,103186.81
2023-02-04T21:53:14.082Z,103197.34
2023-02-04T21:55:45.447Z,103166.94
2023-02-04T21:58:16.727Z,103209.91
2023-02-04T22:00:48.257Z,103202.88
2023-02-04T22:03:19.631Z,103200.56
2023-02-04T22:05:51.177Z,103188.13
2023-02-04T22:08:22.655Z,103188.22
2023-02-04T22:10:54.018Z,103197.16
2023-02-04T22:13:25.351Z,103176.16
2023-02-04T22:15:56.651Z,103196.63
2023-02-04T22:18:28.335Z,103173.56
2023-02-04T22:20:59.839Z,103141.25
2023-02-04T22:23:31.099Z,103178.28
2023-02-04T22:26:02.521Z,103154.78
2023-02-04T22:28:33.783Z,103162.91
2023-02-04T22:31:06.314Z,103177.28
2023-02-04T22:33:37.648Z,103182.38
2023-02-04T22:36:09.064Z,103161.72
2023-02-04T22:38:40.408Z,103186.91
2023-02-04T22:41:11.846Z,103183.41
2023-02-04T22:43:43.236Z,103183.09
2023-02-04T22:46:14.532Z,103162.09
2023-02-04T22:48:45.810Z,103159.72
2023-02-04T22:51:17.081Z,103168.53
2023-02-04T22:53:49.063Z,103167.34
2023-02-04T22:56:21.451Z,103169.03
2023-02-04T22:58:53.022Z,103155.09
2023-02-04T23:01:24.426Z,103143.44
2023-02-04T23:03:55.716Z,103167.53
2023-02-04T23:06:27.583Z,103176.25
2023-02-04T23:08:58.877Z,103172.13
2023-02-04T23:11:30.168Z,103193.41
2023-02-04T23:14:01.556Z,103199.22
2023-02-04T23:16:32.984Z,103201.41
2023-02-04T23:19:04.918Z,103190.66
2023-02-04T23:21:36.363Z,103177.50
2023-02-04T23:24:07.851Z,103165.22
2023-02-04T23:26:39.288Z,103180.97
2023-02-04T23:29:10.554Z,103192.63
2023-02-04T23:31:41.851Z,103188.00
2023-02-04T23:34:13.166Z,103176.03
2023-02-04T23:36:46.498Z,103149.53
2023-02-04T23:39:21.229Z,103176.72
2023-02-04T23:41:52.934Z,103165.31
2023-02-04T23:44:24.282Z,103162.00
2023-02-04T23:46:55.665Z,103148.47
2023-02-04T23:49:26.947Z,103157.63
2023-02-04T23:51:58.356Z,103138.06
2023-02-04T23:54:29.765Z,103149.06
2023-02-04T23:57:01.387Z,103129.75
2023-02-04T23:59:32.775Z,103143.38
